createdAt,value
2023-03-25T00:00:19.355Z,98029.60
2023-03-25T00:03:43.075Z,98031.95
2023-03-25T00:06:45.996Z,98031.69
2023-03-25T00:09:48.984Z,98038.11
2023-03-25T00:12:51.973Z,98034.16
2023-03-25T00:15:58.192Z,98029.91
2023-03-25T00:19:02.101Z,98022.88
2023-03-25T00:22:04.918Z,98023.87
2023-03-25T00:25:09.900Z,98023.40
2023-03-25T00:28:13.874Z,98024.42
2023-03-25T00:31:16.757Z,98025.39
2023-03-25T00:34:20.369Z,98025.87
2023-03-25T00:37:25.648Z,98020.65
2023-03-25T00:40:34.885Z,98029.89
2023-03-25T00:43:37.772Z,98027.14
2023-03-25T00:46:41.043Z,98028.09
2023-03-25T00:49:43.904Z,98021.08
2023-03-25T00:52:46.746Z,98020.80
2023-03-25T00:55:49.743Z,98015.34
2023-03-25T00:58:52.939Z,98021.46
2023-03-25T01:01:56.374Z,98022.30
2023-03-25T01:05:00.187Z,98019.06
2023-03-25T01:08:03.676Z,98021.70
2023-03-25T01:11:16.439Z,98017.39
2023-03-25T01:14:21.861Z,98010.84
2023-03-25T01:17:24.892Z,98019.39
2023-03-25T01:20:27.864Z,98021.45
2023-03-25T01:23:30.816Z,98025.90
2023-03-25T01:26:34.144Z,98014.67
2023-03-25T01:29:37.092Z,98018.30
2023-03-25T01:32:40.010Z,98018.33
2023-03-25T01:35:42.879Z,98015.92
2023-03-25T01:38:48.159Z,98019.80
2023-03-25T01:41:51.833Z,98022.64
2023-03-25T01:44:56.379Z,98028.87
2023-03-25T01:48:06.463Z,98025.62
2023-03-25T01:51:09.176Z,98017.80
2023-03-25T01:54:17.985Z,98011.60
2023-03-25T01:57:23.481Z,98013.42
2023-03-25T02:00:26.793Z,98012.85
2023-03-25T02:03:31.291Z,98009.96
2023-03-25T02:06:40.916Z,98016.84
2023-03-25T02:09:43.664Z,98018.09
2023-03-25T02:12:47.208Z,98023.05
2023-03-25T02:16:33.121Z,98020.79
2023-03-25T02:20:13.913Z,98019.23
2023-03-25T02:23:42.206Z,98013.17
2023-03-25T02:27:17.365Z,98007.78
2023-03-25T02:30:31.376Z,98015.73
2023-03-25T02:33:51.604Z,98011.40
2023-03-25T02:37:29.109Z,98009.39
2023-03-25T02:40:55.662Z,98012.02
2023-03-25T02:44:02.842Z,98013.71
2023-03-25T02:47:10.633Z,98005.56
2023-03-25T02:50:23.783Z,98006.23
2023-03-25T02:53:33.380Z,98006.89
2023-03-25T02:56:39.583Z,98007.17
2023-03-25T02:59:43.964Z,98005.36
2023-03-25T03:03:00.898Z,98001.16
2023-03-25T03:06:06.718Z,97990.83
2023-03-25T03:09:17.736Z,97991.55
2023-03-25T03:12:45.552Z,97999.72
2023-03-25T03:16:09.758Z,98004.76
2023-03-25T03:19:13.909Z,98005.88
2023-03-25T03:22:30.291Z,98008.75
2023-03-25T03:25:38.785Z,98003.77
2023-03-25T03:28:49.387Z,98007.27
2023-03-25T03:32:06.979Z,98005.55
2023-03-25T03:35:20.982Z,98002.63
2023-03-25T03:38:27.515Z,98008.70
2023-03-25T03:41:34.326Z,98011.84
2023-03-25T03:44:39.057Z,98014.14
2023-03-25T03:47:48.521Z,98010.75
2023-03-25T03:51:00.784Z,98007.77
2023-03-25T03:54:17.580Z,98010.08
2023-03-25T03:57:27.090Z,98008.19
2023-03-25T04:00:36.740Z,98005.65
2023-03-25T04:04:17.824Z,98006.61
2023-03-25T04:07:38.892Z,98010.77
2023-03-25T04:10:52.805Z,98010.27
2023-03-25T04:14:00.053Z,98002.04
2023-03-25T04:17:05.248Z,98007.77
2023-03-25T04:20:11.651Z,98010.52
2023-03-25T04:23:17.178Z,98002.67
2023-03-25T04:26:20.050Z,98001.83
2023-03-25T04:29:22.778Z,98009.32
2023-03-25T04:32:28.095Z,98019.13
2023-03-25T04:35:33.106Z,98028.61
2023-03-25T04:38:37.800Z,98033.33
2023-03-25T04:41:40.581Z,98030.48
2023-03-25T04:44:45.161Z,98023.77
2023-03-25T04:47:49.938Z,98020.14
2023-03-25T04:50:52.796Z,98021.94
2023-03-25T04:53:55.899Z,98023.64
2023-03-25T04:56:59.306Z,98017.60
2023-03-25T05:00:02.179Z,98020.45
2023-03-25T05:03:05.375Z,98033.79
2023-03-25T05:06:08.133Z,98037.73
2023-03-25T05:09:15.742Z,98036.52
2023-03-25T05:12:18.659Z,98035.21
2023-03-25T05:15:21.567Z,98037.98
2023-03-25T05:18:24.421Z,98035.08
2023-03-25T05:21:27.370Z,98036.30
2023-03-25T05:24:30.438Z,98042.54
2023-03-25T05:27:33.982Z,98046.51
2023-03-25T05:30:41.859Z,98042.89
2023-03-25T05:33:44.768Z,98033.36
2023-03-25T05:36:47.830Z,98033.05
2023-03-25T05:39:51.893Z,98029.61
2023-03-25T05:42:56.123Z,98031.83
2023-03-25T05:45:59.088Z,98036.64
2023-03-25T05:49:02.531Z,98044.31
2023-03-25T05:52:05.281Z,98040.32
2023-03-25T05:55:14.713Z,98040.31
2023-03-25T05:58:19.552Z,98040.66
2023-03-25T06:01:32.531Z,98038.55
2023-03-25T06:04:41.425Z,98037.17
2023-03-25T06:07:47.678Z,98037.90
2023-03-25T06:10:54.393Z,98040.23
2023-03-25T06:13:57.340Z,98035.48
2023-03-25T06:17:00.161Z,98044.38
2023-03-25T06:20:07.339Z,98043.86
2023-03-25T06:23:10.223Z,98036.02
2023-03-25T06:26:12.936Z,98031.89
2023-03-25T06:29:15.856Z,98031.31
2023-03-25T06:32:18.727Z,98027.48
2023-03-25T06:35:22.231Z,98026.96
2023-03-25T06:38:26.289Z,98027.35
2023-03-25T06:41:44.833Z,98026.09
2023-03-25T06:44:56.143Z,98026.53
2023-03-25T06:48:17.100Z,98028.48
2023-03-25T06:51:22.660Z,98032.30
2023-03-25T06:54:25.410Z,98040.56
2023-03-25T06:57:28.217Z,98039.48
2023-03-25T07:00:31.449Z,98046.52
2023-03-25T07:03:38.774Z,98045.84
2023-03-25T07:06:41.858Z,98046.84
2023-03-25T07:09:44.614Z,98048.09
2023-03-25T07:12:47.800Z,98050.26
2023-03-25T07:15:50.682Z,98047.70
2023-03-25T07:18:54.998Z,98046.38
2023-03-25T07:21:57.798Z,98043.85
2023-03-25T07:25:00.900Z,98038.23
2023-03-25T07:28:03.808Z,98041.39
2023-03-25T07:31:14.709Z,98054.61
2023-03-25T07:34:17.625Z,98057.65
2023-03-25T07:37:20.667Z,98054.88
2023-03-25T07:40:23.557Z,98060.80
2023-03-25T07:43:26.632Z,98057.28
2023-03-25T07:46:39.410Z,98051.46
2023-03-25T07:49:42.501Z,98049.86
2023-03-25T07:52:46.234Z,98042.57
2023-03-25T07:55:51.334Z,98045.09
2023-03-25T07:58:54.362Z,98044.20
2023-03-25T08:01:57.319Z,98045.77
2023-03-25T08:05:00.876Z,98043.38
2023-03-25T08:08:06.032Z,98042.07
2023-03-25T08:11:09.213Z,98039.80
2023-03-25T08:14:12.117Z,98042.88
2023-03-25T08:17:14.972Z,98045.80
2023-03-25T08:20:18.545Z,98039.01
2023-03-25T08:23:22.574Z,98037.63
2023-03-25T08:26:27.033Z,98041.52
2023-03-25T08:29:29.986Z,98049.68
2023-03-25T08:32:32.954Z,98045.26
2023-03-25T08:35:37.730Z,98042.46
2023-03-25T08:38:41.646Z,98033.04
2023-03-25T08:41:45.360Z,98030.80
2023-03-25T08:44:48.267Z,98031.02
2023-03-25T08:47:51.259Z,98031.60
2023-03-25T08:50:54.207Z,98027.48
2023-03-25T08:53:56.992Z,98018.71
2023-03-25T08:56:59.791Z,98018.73
2023-03-25T09:00:06.955Z,98009.61
2023-03-25T09:03:09.739Z,98009.97
2023-03-25T09:06:12.751Z,98005.25
2023-03-25T09:09:17.100Z,98005.19
2023-03-25T09:12:19.917Z,98003.84
2023-03-25T09:15:23.070Z,98005.70
2023-03-25T09:18:26.060Z,98003.34
2023-03-25T09:21:28.805Z,98002.54
2023-03-25T09:24:34.178Z,97996.34
2023-03-25T09:27:37.856Z,97994.85
2023-03-25T09:30:41.137Z,97985.14
2023-03-25T09:33:44.244Z,97986.16
2023-03-25T09:36:47.323Z,97984.59
2023-03-25T09:39:50.444Z,97988.45
2023-03-25T09:43:02.322Z,97990.66
2023-03-25T09:46:06.514Z,97991.71
2023-03-25T09:49:16.952Z,97994.99
2023-03-25T09:52:28.315Z,97996.94
2023-03-25T09:55:37.023Z,98001.60
2023-03-25T09:58:46.752Z,98001.42
2023-03-25T10:02:14.218Z,98002.98
2023-03-25T10:05:54.796Z,97999.48
2023-03-25T10:09:20.851Z,98004.98
2023-03-25T10:12:29.182Z,98002.37
2023-03-25T10:15:54.827Z,98000.11
2023-03-25T10:19:17.465Z,97991.63
2023-03-25T10:22:44.910Z,97979.75
2023-03-25T10:25:49.954Z,97982.75
2023-03-25T10:28:59.567Z,97977.10
2023-03-25T10:32:34.901Z,97970.27
2023-03-25T10:35:42.639Z,97970.34
2023-03-25T10:38:52.056Z,97966.55
2023-03-25T10:42:00.336Z,97970.29
2023-03-25T10:45:03.763Z,97967.48
2023-03-25T10:48:31.248Z,97963.98
2023-03-25T10:51:34.984Z,97963.82
2023-03-25T10:54:42.458Z,97965.37
2023-03-25T10:57:45.534Z,97967.27
2023-03-25T11:00:48.994Z,97962.45
2023-03-25T11:03:53.093Z,97964.27
2023-03-25T11:06:58.164Z,97956.72
2023-03-25T11:10:13.803Z,97957.34
2023-03-25T11:13:22.235Z,97962.01
2023-03-25T11:16:25.873Z,97968.93
2023-03-25T11:20:00.688Z,97979.77
2023-03-25T11:23:17.078Z,98001.73
2023-03-25T11:26:30.181Z,98008.44
2023-03-25T11:29:35.175Z,98007.63
2023-03-25T11:32:40.057Z,98002.32
2023-03-25T11:35:46.634Z,97995.42
2023-03-25T11:38:58.454Z,97987.20
2023-03-25T11:42:29.153Z,97977.46
2023-03-25T11:45:39.227Z,97968.50
2023-03-25T11:48:46.185Z,97961.09
2023-03-25T11:51:51.999Z,97956.34
2023-03-25T11:54:57.006Z,97953.33
2023-03-25T11:58:02.164Z,97950.17
2023-03-25T12:01:07.851Z,97952.02
2023-03-25T12:04:24.917Z,97953.44
2023-03-25T12:07:27.927Z,97945.70
2023-03-25T12:10:52.186Z,97935.02
2023-03-25T12:14:13.483Z,97929.19
2023-03-25T12:18:08.637Z,97923.97
2023-03-25T12:21:48.091Z,97920.91
2023-03-25T12:25:18.070Z,97913.85
2023-03-25T12:28:30.984Z,97912.92
2023-03-25T12:31:52.800Z,97905.10
2023-03-25T12:35:17.563Z,97903.88
2023-03-25T12:39:01.770Z,97896.52
2023-03-25T12:42:07.784Z,97893.83
2023-03-25T12:45:20.871Z,97895.44
2023-03-25T12:48:51.073Z,97891.52
2023-03-25T12:52:21.236Z,97890.56
2023-03-25T12:55:40.823Z,97881.66
2023-03-25T12:59:14.339Z,97879.73
2023-03-25T13:02:31.760Z,97877.23
2023-03-25T13:05:50.423Z,97881.20
2023-03-25T13:09:06.127Z,97877.08
2023-03-25T13:12:27.731Z,97878.35
2023-03-25T13:15:43.021Z,97878.60
2023-03-25T13:18:50.264Z,97882.96
2023-03-25T13:22:00.544Z,97881.93
2023-03-25T13:25:08.616Z,97914.50
2023-03-25T13:28:17.431Z,97922.18
2023-03-25T13:31:24.187Z,97936.45
2023-03-25T13:34:26.854Z,97932.70
2023-03-25T13:37:46.123Z,97935.61
2023-03-25T13:40:54.920Z,97941.77
2023-03-25T13:44:07.208Z,97934.30
2023-03-25T13:47:44.859Z,97938.92
2023-03-25T13:50:47.871Z,97933.98
2023-03-25T13:53:59.719Z,97925.95
2023-03-25T13:57:22.466Z,97914.30
2023-03-25T14:00:48.649Z,97904.79
2023-03-25T14:04:13.519Z,97890.62
2023-03-25T14:07:39.271Z,97885.09
2023-03-25T14:11:01.077Z,97889.86
2023-03-25T14:14:11.296Z,97887.17
2023-03-25T14:17:16.583Z,97887.48
2023-03-25T14:20:27.172Z,97885.28
2023-03-25T14:23:32.199Z,97885.27
2023-03-25T14:26:37.775Z,97885.06
2023-03-25T14:29:47.282Z,97881.00
2023-03-25T14:32:52.058Z,97884.17
2023-03-25T14:35:55.203Z,97882.39
2023-03-25T14:38:59.649Z,97880.91
2023-03-25T14:42:07.061Z,97883.23
2023-03-25T14:45:32.435Z,97883.80
2023-03-25T14:48:45.867Z,97881.63
2023-03-25T14:51:57.013Z,97875.61
2023-03-25T14:55:08.109Z,97872.52
2023-03-25T14:58:24.755Z,97869.72
2023-03-25T15:01:35.121Z,97868.47
2023-03-25T15:04:39.208Z,97871.06
2023-03-25T15:07:54.349Z,97867.34
2023-03-25T15:11:14.512Z,97870.74
2023-03-25T15:14:22.404Z,97870.16
2023-03-25T15:17:49.311Z,97870.41
2023-03-25T15:20:52.389Z,97869.23
2023-03-25T15:24:11.272Z,97868.02
2023-03-25T15:27:26.607Z,97874.31
2023-03-25T15:30:57.443Z,97875.50
2023-03-25T15:34:03.773Z,97875.77
2023-03-25T15:37:45.193Z,97868.70
2023-03-25T15:40:58.584Z,97872.25
2023-03-25T15:44:23.233Z,97871.49
2023-03-25T15:47:29.730Z,97870.78
2023-03-25T15:51:10.480Z,97867.61
2023-03-25T15:54:16.751Z,97868.12
2023-03-25T15:57:19.422Z,97868.45
2023-03-25T16:00:37.474Z,97873.59
2023-03-25T16:03:42.064Z,97876.16
2023-03-25T16:06:48.255Z,97882.25
2023-03-25T16:09:51.560Z,97884.16
2023-03-25T16:12:54.315Z,97890.02
2023-03-25T16:15:58.786Z,97883.34
2023-03-25T16:19:05.162Z,97878.88
2023-03-25T16:22:17.084Z,97880.43
2023-03-25T16:25:30.193Z,97889.70
2023-03-25T16:28:42.579Z,97895.06
2023-03-25T16:32:06.057Z,97899.58
2023-03-25T16:35:24.928Z,97899.98
2023-03-25T16:38:29.313Z,97886.67
2023-03-25T16:41:32.109Z,97896.87
2023-03-25T16:44:35.551Z,97896.96
2023-03-25T16:47:38.507Z,97903.86
2023-03-25T16:50:43.221Z,97904.19
2023-03-25T16:53:50.410Z,97906.12
2023-03-25T16:56:54.087Z,97906.60
2023-03-25T17:00:06.103Z,97906.33
2023-03-25T17:03:20.110Z,97911.48
2023-03-25T17:06:28.364Z,97912.84
2023-03-25T17:09:37.428Z,97912.31
2023-03-25T17:12:42.848Z,97916.94
2023-03-25T17:15:51.436Z,97923.11
2023-03-25T17:18:56.522Z,97929.27
2023-03-25T17:22:16.443Z,97928.63
2023-03-25T17:25:48.928Z,97924.95
2023-03-25T17:28:54.477Z,97930.45
2023-03-25T17:31:59.273Z,97933.79
2023-03-25T17:35:06.683Z,97932.54
2023-03-25T17:38:38.474Z,97937.98
2023-03-25T17:41:41.632Z,97936.63
2023-03-25T17:44:45.568Z,97938.95
2023-03-25T17:47:50.107Z,97946.18
2023-03-25T17:50:54.850Z,97947.95
2023-03-25T17:53:57.759Z,97943.31
2023-03-25T17:57:00.803Z,97948.02
2023-03-25T18:00:12.380Z,97949.44
2023-03-25T18:03:18.312Z,97951.89
2023-03-25T18:06:22.099Z,97950.09
2023-03-25T18:09:25.373Z,97949.65
2023-03-25T18:12:28.442Z,97950.70
2023-03-25T18:15:31.698Z,97949.48
2023-03-25T18:18:34.512Z,97949.95
2023-03-25T18:21:37.378Z,97951.78
2023-03-25T18:24:40.117Z,97955.58
2023-03-25T18:27:44.395Z,97951.20
2023-03-25T18:30:51.050Z,97950.38
2023-03-25T18:33:55.852Z,97953.45
2023-03-25T18:36:58.697Z,97951.30
2023-03-25T18:40:01.937Z,97948.76
2023-03-25T18:43:04.698Z,97948.08
2023-03-25T18:46:10.959Z,97946.09
2023-03-25T18:49:17.085Z,97945.27
2023-03-25T18:52:19.829Z,97947.77
2023-03-25T18:55:24.312Z,97949.88
2023-03-25T18:58:31.182Z,97954.56
2023-03-25T19:01:33.947Z,97959.02
2023-03-25T19:04:36.912Z,97958.73
2023-03-25T19:07:40.716Z,97954.70
2023-03-25T19:10:43.966Z,97958.27
2023-03-25T19:13:46.824Z,97955.61
2023-03-25T19:17:01.177Z,97951.98
2023-03-25T19:20:07.563Z,97951.73
2023-03-25T19:23:12.068Z,97950.02
2023-03-25T19:26:15.408Z,97949.38
2023-03-25T19:29:18.158Z,97948.85
2023-03-25T19:32:21.687Z,97947.99
2023-03-25T19:35:24.658Z,97950.89
2023-03-25T19:38:27.538Z,97946.66
2023-03-25T19:41:30.351Z,97946.10
2023-03-25T19:44:33.089Z,97944.16
2023-03-25T19:47:42.095Z,97938.08
2023-03-25T19:50:44.935Z,97938.48
2023-03-25T19:53:48.084Z,97936.90
2023-03-25T19:56:50.935Z,97935.58
2023-03-25T19:59:53.856Z,97933.44
2023-03-25T20:03:00.673Z,97937.54
2023-03-25T20:06:06.507Z,97938.95
2023-03-25T20:09:10.669Z,97934.44
2023-03-25T20:12:13.400Z,97935.61
2023-03-25T20:15:18.959Z,97934.14
2023-03-25T20:18:21.741Z,97932.39
2023-03-25T20:21:25.452Z,97936.77
2023-03-25T20:24:28.474Z,97940.02
2023-03-25T20:27:31.429Z,97937.48
2023-03-25T20:30:35.858Z,97933.16
2023-03-25T20:33:38.780Z,97936.65
2023-03-25T20:36:42.272Z,97933.63
2023-03-25T20:39:45.075Z,97936.98
2023-03-25T20:42:48.720Z,97935.05
2023-03-25T20:45:58.299Z,97937.83
2023-03-25T20:49:02.085Z,97938.60
2023-03-25T20:52:05.491Z,97935.38
2023-03-25T20:55:10.152Z,97938.98
2023-03-25T20:58:12.971Z,97937.43
2023-03-25T21:01:16.231Z,97933.52
2023-03-25T21:04:21.040Z,97932.27
2023-03-25T21:07:27.937Z,97934.04
2023-03-25T21:10:30.551Z,97937.32
2023-03-25T21:13:34.102Z,97931.86
2023-03-25T21:16:39.553Z,97929.63
2023-03-25T21:19:43.285Z,97928.49
2023-03-25T21:22:46.073Z,97927.91
2023-03-25T21:25:49.644Z,97929.92
2023-03-25T21:28:53.155Z,97929.81
2023-03-25T21:31:56.929Z,97929.48
2023-03-25T21:34:59.787Z,97929.09
2023-03-25T21:38:07.473Z,97926.63
2023-03-25T21:41:11.052Z,97934.73
2023-03-25T21:44:16.025Z,97941.60
2023-03-25T21:47:18.894Z,97941.63
2023-03-25T21:50:21.729Z,97946.25
2023-03-25T21:53:31.224Z,97949.41
2023-03-25T21:56:34.864Z,97953.07
2023-03-25T21:59:37.934Z,97952.05
2023-03-25T22:02:43.457Z,97952.05
2023-03-25T22:05:46.329Z,97948.21
2023-03-25T22:08:49.818Z,97945.27
2023-03-25T22:11:52.569Z,97946.05
2023-03-25T22:14:55.354Z,97950.17
2023-03-25T22:17:58.181Z,97950.28
2023-03-25T22:21:07.257Z,97942.91
2023-03-25T22:24:10.027Z,97947.20
2023-03-25T22:27:13.099Z,97943.92
2023-03-25T22:30:16.508Z,97939.23
2023-03-25T22:33:19.291Z,97940.89
2023-03-25T22:36:22.123Z,97943.96
2023-03-25T22:39:26.871Z,97942.77
2023-03-25T22:42:29.773Z,97941.11
2023-03-25T22:45:32.788Z,97939.14
2023-03-25T22:48:39.361Z,97935.54
2023-03-25T22:51:42.386Z,97937.07
2023-03-25T22:54:45.428Z,97937.70
2023-03-25T22:57:48.355Z,97933.05
2023-03-25T23:00:52.510Z,97936.09
2023-03-25T23:03:56.537Z,97936.90
2023-03-25T23:07:08.044Z,97937.46
2023-03-25T23:10:13.858Z,97938.86
2023-03-25T23:13:16.567Z,97936.54
2023-03-25T23:16:23.135Z,97936.25
2023-03-25T23:19:25.989Z,97934.05
2023-03-25T23:22:28.779Z,97938.15
2023-03-25T23:25:31.990Z,97936.08
2023-03-25T23:28:38.191Z,97934.48
2023-03-25T23:31:43.589Z,97933.45
2023-03-25T23:34:46.498Z,97927.61
2023-03-25T23:37:50.425Z,97929.41
2023-03-25T23:41:06.511Z,97932.86
2023-03-25T23:44:09.293Z,97939.91
2023-03-25T23:47:12.381Z,97937.84
2023-03-25T23:50:18.621Z,97936.42
2023-03-25T23:53:23.115Z,97936.25
2023-03-25T23:56:25.946Z,97931.91
2023-03-25T23:59:28.734Z,97935.62
